sensor_id;sensor_type;location;lat;lon;timestamp;temperature;humidity
3086;DHT22;52812;48.960;9.108;2022-12-18T00:01:02;-12.00;99.90
3086;DHT22;52812;48.960;9.108;2022-12-18T00:03:32;-11.90;99.90
3086;DHT22;52812;48.960;9.108;2022-12-18T00:05:58;-11.90;99.90
3086;DHT22;52812;48.960;9.108;2022-12-18T00:08:24;-11.80;99.90
3086;DHT22;52812;48.960;9.108;2022-12-18T00:10:49;-11.90;99.90
3086;DHT22;52812;48.960;9.108;2022-12-18T00:13:15;-11.80;99.90
3086;DHT22;52812;48.960;9.108;2022-12-18T00:15:40;-11.80;99.90
3086;DHT22;52812;48.960;9.108;2022-12-18T00:18:06;-11.90;99.90
3086;DHT22;52812;48.960;9.108;2022-12-18T00:20:36;-11.90;99.90
3086;DHT22;52812;48.960;9.108;2022-12-18T00:23:02;-11.90;99.90
3086;DHT22;52812;48.960;9.108;2022-12-18T00:25:27;-12.00;99.90
3086;DHT22;52812;48.960;9.108;2022-12-18T00:27:53;-12.00;99.90
3086;DHT22;52812;48.960;9.108;2022-12-18T00:30:18;-12.00;99.90
3086;DHT22;52812;48.960;9.108;2022-12-18T00:32:44;-11.90;99.90
3086;DHT22;52812;48.960;9.108;2022-12-18T00:35:10;-11.90;99.90
3086;DHT22;52812;48.960;9.108;2022-12-18T00:37:35;-12.00;99.90
3086;DHT22;52812;48.960;9.108;2022-12-18T00:40:01;-12.00;99.90
3086;DHT22;52812;48.960;9.108;2022-12-18T00:42:27;-12.00;99.90
3086;DHT22;52812;48.960;9.108;2022-12-18T00:45:11;-12.10;99.90
3086;DHT22;52812;48.960;9.108;2022-12-18T00:47:37;-12.10;99.90
3086;DHT22;52812;48.960;9.108;2022-12-18T00:50:03;-12.10;99.90
3086;DHT22;52812;48.960;9.108;2022-12-18T00:52:29;-12.10;99.90
3086;DHT22;52812;48.960;9.108;2022-12-18T00:54:54;-12.10;99.90
3086;DHT22;52812;48.960;9.108;2022-12-18T00:57:20;-12.10;99.90
3086;DHT22;52812;48.960;9.108;2022-12-18T00:59:45;-12.00;99.90
3086;DHT22;52812;48.960;9.108;2022-12-18T01:02:12;-12.00;99.90
3086;DHT22;52812;48.960;9.108;2022-12-18T01:04:38;-12.10;99.90
3086;DHT22;52812;48.960;9.108;2022-12-18T01:07:03;-12.10;99.90
3086;DHT22;52812;48.960;9.108;2022-12-18T01:09:29;-12.20;99.90
3086;DHT22;52812;48.960;9.108;2022-12-18T01:11:54;-12.20;99.90
3086;DHT22;52812;48.960;9.108;2022-12-18T01:14:20;-12.20;99.90
3086;DHT22;52812;48.960;9.108;2022-12-18T01:16:45;-12.20;99.90
3086;DHT22;52812;48.960;9.108;2022-12-18T01:19:11;-12.20;99.90
3086;DHT22;52812;48.960;9.108;2022-12-18T01:21:37;-12.10;99.90
3086;DHT22;52812;48.960;9.108;2022-12-18T01:24:02;-12.20;99.90
3086;DHT22;52812;48.960;9.108;2022-12-18T01:26:28;-12.20;99.90
3086;DHT22;52812;48.960;9.108;2022-12-18T01:28:56;-12.20;99.90
3086;DHT22;52812;48.960;9.108;2022-12-18T01:31:27;-12.20;99.90
3086;DHT22;52812;48.960;9.108;2022-12-18T01:33:54;-12.20;99.90
3086;DHT22;52812;48.960;9.108;2022-12-18T01:36:21;-12.30;99.90
3086;DHT22;52812;48.960;9.108;2022-12-18T01:38:47;-12.30;99.90
3086;DHT22;52812;48.960;9.108;2022-12-18T01:41:15;-12.30;99.90
3086;DHT22;52812;48.960;9.108;2022-12-18T01:46:16;-12.30;99.90
3086;DHT22;52812;48.960;9.108;2022-12-18T01:48:45;-12.20;99.90
3086;DHT22;52812;48.960;9.108;2022-12-18T01:51:12;-12.20;99.90
3086;DHT22;52812;48.960;9.108;2022-12-18T01:53:40;-12.10;99.90
3086;DHT22;52812;48.960;9.108;2022-12-18T01:56:06;-12.20;99.90
3086;DHT22;52812;48.960;9.108;2022-12-18T02:01:12;-12.20;99.90
3086;DHT22;52812;48.960;9.108;2022-12-18T02:03:41;-12.20;99.90
3086;DHT22;52812;48.960;9.108;2022-12-18T02:06:17;-12.10;99.90
3086;DHT22;52812;48.960;9.108;2022-12-18T02:09:04;-12.00;99.90
3086;DHT22;52812;48.960;9.108;2022-12-18T02:16:52;-11.90;99.90
3086;DHT22;52812;48.960;9.108;2022-12-18T02:19:47;-12.00;99.90
3086;DHT22;52812;48.960;9.108;2022-12-18T02:25:18;-11.90;99.90
3086;DHT22;52812;48.960;9.108;2022-12-18T02:27:47;-12.00;99.90
3086;DHT22;52812;48.960;9.108;2022-12-18T02:30:15;-12.00;99.90
3086;DHT22;52812;48.960;9.108;2022-12-18T02:32:46;-12.00;99.90
3086;DHT22;52812;48.960;9.108;2022-12-18T02:35:16;-12.00;99.90
3086;DHT22;52812;48.960;9.108;2022-12-18T02:37:43;-12.10;99.90
3086;DHT22;52812;48.960;9.108;2022-12-18T02:40:11;-12.10;99.90
3086;DHT22;52812;48.960;9.108;2022-12-18T02:42:38;-12.00;99.90
3086;DHT22;52812;48.960;9.108;2022-12-18T02:45:04;-12.00;99.90
3086;DHT22;52812;48.960;9.108;2022-12-18T02:47:32;-11.90;99.90
3086;DHT22;52812;48.960;9.108;2022-12-18T03:03:39;-11.90;99.90
3086;DHT22;52812;48.960;9.108;2022-12-18T03:06:14;-11.90;99.90
3086;DHT22;52812;48.960;9.108;2022-12-18T03:08:47;-11.80;99.90
3086;DHT22;52812;48.960;9.108;2022-12-18T03:11:14;-11.80;99.90
3086;DHT22;52812;48.960;9.108;2022-12-18T03:13:48;-11.90;99.90
3086;DHT22;52812;48.960;9.108;2022-12-18T03:16:24;-11.90;99.90
3086;DHT22;52812;48.960;9.108;2022-12-18T03:19:01;-11.80;99.90
3086;DHT22;52812;48.960;9.108;2022-12-18T03:21:36;-11.80;99.90
3086;DHT22;52812;48.960;9.108;2022-12-18T03:24:05;-11.80;99.90
3086;DHT22;52812;48.960;9.108;2022-12-18T03:26:33;-11.80;99.90
3086;DHT22;52812;48.960;9.108;2022-12-18T03:29:06;-11.70;99.90
3086;DHT22;52812;48.960;9.108;2022-12-18T03:31:33;-11.70;99.90
3086;DHT22;52812;48.960;9.108;2022-12-18T03:34:01;-11.60;99.90
3086;DHT22;52812;48.960;9.108;2022-12-18T03:36:31;-11.60;99.90
3086;DHT22;52812;48.960;9.108;2022-12-18T03:38:57;-11.40;99.90
3086;DHT22;52812;48.960;9.108;2022-12-18T03:47:53;-11.40;99.90
3086;DHT22;52812;48.960;9.108;2022-12-18T03:50:51;-11.40;99.90
3086;DHT22;52812;48.960;9.108;2022-12-18T03:55:51;-11.50;99.90
3086;DHT22;52812;48.960;9.108;2022-12-18T03:58:20;-11.50;99.90
3086;DHT22;52812;48.960;9.108;2022-12-18T04:00:49;-11.40;99.90
3086;DHT22;52812;48.960;9.108;2022-12-18T04:03:17;-11.30;99.90
3086;DHT22;52812;48.960;9.108;2022-12-18T04:05:45;-11.20;99.90
3086;DHT22;52812;48.960;9.108;2022-12-18T04:08:12;-11.20;99.90
3086;DHT22;52812;48.960;9.108;2022-12-18T04:10:38;-11.10;99.90
3086;DHT22;52812;48.960;9.108;2022-12-18T04:13:04;-11.10;99.90
3086;DHT22;52812;48.960;9.108;2022-12-18T04:15:29;-11.20;99.90
3086;DHT22;52812;48.960;9.108;2022-12-18T04:17:56;-11.30;99.90
3086;DHT22;52812;48.960;9.108;2022-12-18T04:20:22;-11.20;99.90
3086;DHT22;52812;48.960;9.108;2022-12-18T04:22:48;-11.20;99.90
3086;DHT22;52812;48.960;9.108;2022-12-18T04:25:13;-11.20;99.90
3086;DHT22;52812;48.960;9.108;2022-12-18T04:27:41;-11.10;99.90
3086;DHT22;52812;48.960;9.108;2022-12-18T04:30:07;-11.10;99.90
3086;DHT22;52812;48.960;9.108;2022-12-18T04:32:34;-11.10;99.90
3086;DHT22;52812;48.960;9.108;2022-12-18T04:35:00;-11.10;99.90
3086;DHT22;52812;48.960;9.108;2022-12-18T04:37:25;-11.10;99.90
3086;DHT22;52812;48.960;9.108;2022-12-18T04:39:51;-11.30;99.90
3086;DHT22;52812;48.960;9.108;2022-12-18T04:42:16;-11.40;99.90
3086;DHT22;52812;48.960;9.108;2022-12-18T04:44:42;-11.40;99.90
3086;DHT22;52812;48.960;9.108;2022-12-18T04:47:07;-11.50;99.90
3086;DHT22;52812;48.960;9.108;2022-12-18T04:49:33;-11.60;99.90
3086;DHT22;52812;48.960;9.108;2022-12-18T04:51:58;-11.50;99.90
3086;DHT22;52812;48.960;9.108;2022-12-18T04:54:24;-11.30;99.90
3086;DHT22;52812;48.960;9.108;2022-12-18T04:56:49;-11.20;99.90
3086;DHT22;52812;48.960;9.108;2022-12-18T04:59:15;-11.10;99.90
3086;DHT22;52812;48.960;9.108;2022-12-18T05:01:40;-11.00;99.90
3086;DHT22;52812;48.960;9.108;2022-12-18T05:04:06;-10.90;99.90
3086;DHT22;52812;48.960;9.108;2022-12-18T05:06:32;-10.80;99.90
3086;DHT22;52812;48.960;9.108;2022-12-18T05:08:57;-10.70;99.90
3086;DHT22;52812;48.960;9.108;2022-12-18T05:11:23;-10.70;99.90
3086;DHT22;52812;48.960;9.108;2022-12-18T05:13:49;-10.70;99.90
3086;DHT22;52812;48.960;9.108;2022-12-18T05:16:14;-10.80;99.90
3086;DHT22;52812;48.960;9.108;2022-12-18T05:18:40;-10.60;99.90
3086;DHT22;52812;48.960;9.108;2022-12-18T05:21:06;-10.60;99.90
3086;DHT22;52812;48.960;9.108;2022-12-18T05:23:32;-10.60;99.90
3086;DHT22;52812;48.960;9.108;2022-12-18T05:26:00;-10.60;99.90
3086;DHT22;52812;48.960;9.108;2022-12-18T05:28:27;-10.50;99.90
3086;DHT22;52812;48.960;9.108;2022-12-18T05:30:56;-10.50;99.90
3086;DHT22;52812;48.960;9.108;2022-12-18T05:33:23;-10.40;99.90
3086;DHT22;52812;48.960;9.108;2022-12-18T05:35:54;-10.40;99.90
3086;DHT22;52812;48.960;9.108;2022-12-18T05:38:21;-10.50;99.90
3086;DHT22;52812;48.960;9.108;2022-12-18T05:40:48;-10.60;99.90
3086;DHT22;52812;48.960;9.108;2022-12-18T05:43:14;-10.70;99.90
3086;DHT22;52812;48.960;9.108;2022-12-18T05:45:42;-10.70;99.90
3086;DHT22;52812;48.960;9.108;2022-12-18T05:48:09;-10.70;99.90
3086;DHT22;52812;48.960;9.108;2022-12-18T05:50:39;-10.70;99.90
3086;DHT22;52812;48.960;9.108;2022-12-18T05:53:05;-10.70;99.90
3086;DHT22;52812;48.960;9.108;2022-12-18T05:55:35;-10.60;99.90
3086;DHT22;52812;48.960;9.108;2022-12-18T05:58:02;-10.50;99.90
3086;DHT22;52812;48.960;9.108;2022-12-18T06:00:28;-10.50;99.90
3086;DHT22;52812;48.960;9.108;2022-12-18T06:02:54;-10.50;99.90
3086;DHT22;52812;48.960;9.108;2022-12-18T06:05:19;-10.50;99.90
3086;DHT22;52812;48.960;9.108;2022-12-18T06:07:45;-10.50;99.90
3086;DHT22;52812;48.960;9.108;2022-12-18T06:10:11;-10.30;99.90
3086;DHT22;52812;48.960;9.108;2022-12-18T06:12:37;-10.50;99.90
3086;DHT22;52812;48.960;9.108;2022-12-18T06:15:02;-10.60;99.90
3086;DHT22;52812;48.960;9.108;2022-12-18T06:17:33;-10.70;99.90
3086;DHT22;52812;48.960;9.108;2022-12-18T06:19:58;-10.80;99.90
3086;DHT22;52812;48.960;9.108;2022-12-18T06:22:25;-10.90;99.90
3086;DHT22;52812;48.960;9.108;2022-12-18T06:24:50;-11.00;99.90
3086;DHT22;52812;48.960;9.108;2022-12-18T06:27:30;-10.90;99.90
3086;DHT22;52812;48.960;9.108;2022-12-18T06:29:56;-10.90;99.90
3086;DHT22;52812;48.960;9.108;2022-12-18T06:32:21;-10.80;99.90
3086;DHT22;52812;48.960;9.108;2022-12-18T06:34:47;-10.70;99.90
3086;DHT22;52812;48.960;9.108;2022-12-18T06:37:13;-10.70;99.90
3086;DHT22;52812;48.960;9.108;2022-12-18T06:39:38;-10.70;99.90
3086;DHT22;52812;48.960;9.108;2022-12-18T06:42:04;-10.80;99.90
3086;DHT22;52812;48.960;9.108;2022-12-18T06:44:30;-11.00;99.90
3086;DHT22;52812;48.960;9.108;2022-12-18T06:46:55;-11.20;99.90
3086;DHT22;52812;48.960;9.108;2022-12-18T06:49:21;-11.30;99.90
3086;DHT22;52812;48.960;9.108;2022-12-18T06:51:47;-11.30;99.90
3086;DHT22;52812;48.960;9.108;2022-12-18T06:54:12;-11.40;99.90
3086;DHT22;52812;48.960;9.108;2022-12-18T06:56:38;-11.40;99.90
3086;DHT22;52812;48.960;9.108;2022-12-18T06:59:04;-11.30;99.90
3086;DHT22;52812;48.960;9.108;2022-12-18T07:01:29;-11.30;99.90
3086;DHT22;52812;48.960;9.108;2022-12-18T07:03:56;-11.20;99.90
3086;DHT22;52812;48.960;9.108;2022-12-18T07:06:24;-11.10;99.90
3086;DHT22;52812;48.960;9.108;2022-12-18T07:08:51;-11.20;99.90
3086;DHT22;52812;48.960;9.108;2022-12-18T07:11:18;-11.00;99.90
3086;DHT22;52812;48.960;9.108;2022-12-18T07:13:44;-10.90;99.90
3086;DHT22;52812;48.960;9.108;2022-12-18T07:16:17;-11.00;99.90
3086;DHT22;52812;48.960;9.108;2022-12-18T07:18:43;-11.00;99.90
3086;DHT22;52812;48.960;9.108;2022-12-18T07:21:12;-11.10;99.90
3086;DHT22;52812;48.960;9.108;2022-12-18T07:23:38;-11.20;99.90
3086;DHT22;52812;48.960;9.108;2022-12-18T07:26:10;-11.10;99.90
3086;DHT22;52812;48.960;9.108;2022-12-18T07:28:37;-11.00;99.90
3086;DHT22;52812;48.960;9.108;2022-12-18T07:31:11;-10.80;99.90
3086;DHT22;52812;48.960;9.108;2022-12-18T07:33:37;-10.80;99.90
3086;DHT22;52812;48.960;9.108;2022-12-18T07:36:04;-10.90;99.90
3086;DHT22;52812;48.960;9.108;2022-12-18T07:38:31;-11.00;99.90
3086;DHT22;52812;48.960;9.108;2022-12-18T07:41:16;-11.00;99.90
3086;DHT22;52812;48.960;9.108;2022-12-18T07:43:42;-11.10;99.90
3086;DHT22;52812;48.960;9.108;2022-12-18T07:46:12;-11.20;99.90
3086;DHT22;52812;48.960;9.108;2022-12-18T07:48:40;-11.30;99.90
3086;DHT22;52812;48.960;9.108;2022-12-18T07:51:07;-11.30;99.90
3086;DHT22;52812;48.960;9.108;2022-12-18T07:53:34;-11.20;99.90
3086;DHT22;52812;48.960;9.108;2022-12-18T07:56:04;-10.90;99.90
3086;DHT22;52812;48.960;9.108;2022-12-18T07:58:31;-10.70;99.90
3086;DHT22;52812;48.960;9.108;2022-12-18T08:01:08;-10.50;99.90
3086;DHT22;52812;48.960;9.108;2022-12-18T08:03:34;-10.30;99.90
3086;DHT22;52812;48.960;9.108;2022-12-18T08:06:04;-10.20;99.90
3086;DHT22;52812;48.960;9.108;2022-12-18T08:08:32;-10.10;99.90
3086;DHT22;52812;48.960;9.108;2022-12-18T08:10:59;-9.90;99.90
3086;DHT22;52812;48.960;9.108;2022-12-18T08:13:25;-9.80;99.90
3086;DHT22;52812;48.960;9.108;2022-12-18T08:18:23;-9.50;99.90
3086;DHT22;52812;48.960;9.108;2022-12-18T08:20:49;-9.40;99.90
3086;DHT22;52812;48.960;9.108;2022-12-18T08:23:14;-9.30;99.90
3086;DHT22;52812;48.960;9.108;2022-12-18T08:25:40;-9.20;99.90
3086;DHT22;52812;48.960;9.108;2022-12-18T08:28:06;-9.20;99.90
3086;DHT22;52812;48.960;9.108;2022-12-18T08:30:31;-9.10;99.90
3086;DHT22;52812;48.960;9.108;2022-12-18T08:32:57;-9.00;99.90
3086;DHT22;52812;48.960;9.108;2022-12-18T08:35:23;-8.90;99.90
3086;DHT22;52812;48.960;9.108;2022-12-18T08:37:49;-8.90;99.90
3086;DHT22;52812;48.960;9.108;2022-12-18T08:40:15;-8.70;99.90
3086;DHT22;52812;48.960;9.108;2022-12-18T08:42:40;-8.60;99.90
3086;DHT22;52812;48.960;9.108;2022-12-18T08:45:25;-8.50;99.90
3086;DHT22;52812;48.960;9.108;2022-12-18T08:47:51;-8.30;99.90
3086;DHT22;52812;48.960;9.108;2022-12-18T08:50:17;-8.10;99.90
3086;DHT22;52812;48.960;9.108;2022-12-18T08:52:43;-8.10;99.90
3086;DHT22;52812;48.960;9.108;2022-12-18T08:55:09;-7.80;99.90
3086;DHT22;52812;48.960;9.108;2022-12-18T08:57:35;-7.80;99.90
3086;DHT22;52812;48.960;9.108;2022-12-18T09:00:01;-7.70;99.90
3086;DHT22;52812;48.960;9.108;2022-12-18T09:02:26;-7.70;99.90
3086;DHT22;52812;48.960;9.108;2022-12-18T09:04:52;-7.70;99.90
3086;DHT22;52812;48.960;9.108;2022-12-18T09:07:18;-7.70;99.90
3086;DHT22;52812;48.960;9.108;2022-12-18T09:09:43;-7.60;99.90
3086;DHT22;52812;48.960;9.108;2022-12-18T09:12:09;-7.40;99.90
3086;DHT22;52812;48.960;9.108;2022-12-18T09:14:35;-7.40;99.90
3086;DHT22;52812;48.960;9.108;2022-12-18T09:17:01;-7.30;99.90
3086;DHT22;52812;48.960;9.108;2022-12-18T09:19:27;-7.10;99.90
3086;DHT22;52812;48.960;9.108;2022-12-18T09:21:52;-7.00;99.90
3086;DHT22;52812;48.960;9.108;2022-12-18T09:24:18;-6.90;99.90
3086;DHT22;52812;48.960;9.108;2022-12-18T09:26:44;-6.80;99.90
3086;DHT22;52812;48.960;9.108;2022-12-18T09:29:10;-6.90;99.90
3086;DHT22;52812;48.960;9.108;2022-12-18T09:31:36;-6.80;99.90
3086;DHT22;52812;48.960;9.108;2022-12-18T09:34:03;-6.70;99.90
3086;DHT22;52812;48.960;9.108;2022-12-18T09:36:31;-6.70;99.90
3086;DHT22;52812;48.960;9.108;2022-12-18T09:38:57;-6.50;99.90
3086;DHT22;52812;48.960;9.108;2022-12-18T09:41:52;-6.50;99.90
3086;DHT22;52812;48.960;9.108;2022-12-18T09:47:20;-6.30;99.90
3086;DHT22;52812;48.960;9.108;2022-12-18T09:52:52;-6.30;99.90
3086;DHT22;52812;48.960;9.108;2022-12-18T09:58:13;-6.10;99.90
3086;DHT22;52812;48.960;9.108;2022-12-18T10:00:41;-6.00;99.90
3086;DHT22;52812;48.960;9.108;2022-12-18T10:03:12;-5.90;99.90
3086;DHT22;52812;48.960;9.108;2022-12-18T10:06:04;-5.80;99.90
3086;DHT22;52812;48.960;9.108;2022-12-18T10:08:56;-5.70;99.90
3086;DHT22;52812;48.960;9.108;2022-12-18T10:11:43;-5.70;99.90
3086;DHT22;52812;48.960;9.108;2022-12-18T10:20:00;-5.40;99.90
3086;DHT22;52812;48.960;9.108;2022-12-18T10:22:51;-5.30;99.90
3086;DHT22;52812;48.960;9.108;2022-12-18T10:28:00;-5.10;99.90
3086;DHT22;52812;48.960;9.108;2022-12-18T10:30:27;-5.00;99.90
3086;DHT22;52812;48.960;9.108;2022-12-18T10:32:53;-4.90;99.90
3086;DHT22;52812;48.960;9.108;2022-12-18T10:35:26;-4.80;99.90
3086;DHT22;52812;48.960;9.108;2022-12-18T10:40:29;-4.50;99.90
3086;DHT22;52812;48.960;9.108;2022-12-18T10:43:13;-4.40;99.90
3086;DHT22;52812;48.960;9.108;2022-12-18T10:45:40;-4.40;99.90
3086;DHT22;52812;48.960;9.108;2022-12-18T10:48:18;-4.30;99.90
3086;DHT22;52812;48.960;9.108;2022-12-18T10:50:48;-4.20;99.90
3086;DHT22;52812;48.960;9.108;2022-12-18T10:53:22;-4.00;99.90
3086;DHT22;52812;48.960;9.108;2022-12-18T10:55:48;-3.90;99.90
3086;DHT22;52812;48.960;9.108;2022-12-18T10:58:30;-3.80;99.90
3086;DHT22;52812;48.960;9.108;2022-12-18T11:06:04;-3.50;99.90
3086;DHT22;52812;48.960;9.108;2022-12-18T11:08:30;-3.60;99.90
3086;DHT22;52812;48.960;9.108;2022-12-18T11:10:55;-3.50;99.90
3086;DHT22;52812;48.960;9.108;2022-12-18T11:13:24;-3.40;99.90
3086;DHT22;52812;48.960;9.108;2022-12-18T11:15:51;-3.30;99.90
3086;DHT22;52812;48.960;9.108;2022-12-18T11:18:25;-3.20;99.90
3086;DHT22;52812;48.960;9.108;2022-12-18T11:20:59;-3.20;99.90
3086;DHT22;52812;48.960;9.108;2022-12-18T11:23:27;-3.30;99.90
3086;DHT22;52812;48.960;9.108;2022-12-18T11:25:59;-3.10;99.90
3086;DHT22;52812;48.960;9.108;2022-12-18T11:28:40;-3.10;99.90
3086;DHT22;52812;48.960;9.108;2022-12-18T11:31:22;-3.10;99.90
3086;DHT22;52812;48.960;9.108;2022-12-18T11:36:34;-2.90;99.90
3086;DHT22;52812;48.960;9.108;2022-12-18T11:39:09;-2.90;99.90
3086;DHT22;52812;48.960;9.108;2022-12-18T11:45:22;-2.90;99.90
3086;DHT22;52812;48.960;9.108;2022-12-18T11:50:20;-2.90;99.90
3086;DHT22;52812;48.960;9.108;2022-12-18T11:52:47;-2.80;99.90
3086;DHT22;52812;48.960;9.108;2022-12-18T11:55:37;-2.60;99.90
3086;DHT22;52812;48.960;9.108;2022-12-18T12:01:16;-2.60;99.90
3086;DHT22;52812;48.960;9.108;2022-12-18T12:06:57;-2.70;99.90
3086;DHT22;52812;48.960;9.108;2022-12-18T12:20:20;-2.70;99.90
3086;DHT22;52812;48.960;9.108;2022-12-18T12:23:08;-2.70;99.90
3086;DHT22;52812;48.960;9.108;2022-12-18T12:26:01;-2.50;99.90
3086;DHT22;52812;48.960;9.108;2022-12-18T12:28:45;-2.30;99.90
3086;DHT22;52812;48.960;9.108;2022-12-18T12:37:04;-2.20;99.90
3086;DHT22;52812;48.960;9.108;2022-12-18T12:39:37;-2.20;99.90
3086;DHT22;52812;48.960;9.108;2022-12-18T12:42:05;-2.10;99.90
3086;DHT22;52812;48.960;9.108;2022-12-18T12:44:55;-2.00;99.90
3086;DHT22;52812;48.960;9.108;2022-12-18T12:47:30;-2.00;99.90
3086;DHT22;52812;48.960;9.108;2022-12-18T12:49:59;-1.90;99.90
3086;DHT22;52812;48.960;9.108;2022-12-18T12:52:36;-2.00;99.90
3086;DHT22;52812;48.960;9.108;2022-12-18T12:55:04;-2.00;99.90
3086;DHT22;52812;48.960;9.108;2022-12-18T12:57:40;-2.00;99.90
3086;DHT22;52812;48.960;9.108;2022-12-18T13:00:14;-2.00;99.90
3086;DHT22;52812;48.960;9.108;2022-12-18T13:05:40;-2.00;99.90
3086;DHT22;52812;48.960;9.108;2022-12-18T13:08:12;-2.00;99.90
3086;DHT22;52812;48.960;9.108;2022-12-18T13:10:41;-1.90;99.90
3086;DHT22;52812;48.960;9.108;2022-12-18T13:13:11;-1.90;99.90
3086;DHT22;52812;48.960;9.108;2022-12-18T13:15:44;-1.90;99.90
3086;DHT22;52812;48.960;9.108;2022-12-18T13:18:11;-1.80;99.90
3086;DHT22;52812;48.960;9.108;2022-12-18T13:23:27;-1.70;99.90
3086;DHT22;52812;48.960;9.108;2022-12-18T13:25:53;-1.70;99.90
3086;DHT22;52812;48.960;9.108;2022-12-18T13:31:00;-1.70;99.90
3086;DHT22;52812;48.960;9.108;2022-12-18T13:38:40;-1.70;99.90
3086;DHT22;52812;48.960;9.108;2022-12-18T13:41:23;-1.70;99.90
3086;DHT22;52812;48.960;9.108;2022-12-18T13:44:07;-1.50;99.90
3086;DHT22;52812;48.960;9.108;2022-12-18T13:46:48;-1.50;99.90
3086;DHT22;52812;48.960;9.108;2022-12-18T13:52:03;-1.50;99.90
3086;DHT22;52812;48.960;9.108;2022-12-18T13:54:41;-1.60;99.90
3086;DHT22;52812;48.960;9.108;2022-12-18T13:57:31;-1.60;99.90
3086;DHT22;52812;48.960;9.108;2022-12-18T13:59:58;-1.60;99.90
3086;DHT22;52812;48.960;9.108;2022-12-18T14:02:26;-1.70;99.90
3086;DHT22;52812;48.960;9.108;2022-12-18T14:04:53;-1.80;99.90
3086;DHT22;52812;48.960;9.108;2022-12-18T14:09:52;-1.90;99.90
3086;DHT22;52812;48.960;9.108;2022-12-18T14:12:24;-1.90;99.90
3086;DHT22;52812;48.960;9.108;2022-12-18T14:20:24;-2.00;99.90
3086;DHT22;52812;48.960;9.108;2022-12-18T14:22:50;-2.00;99.90
3086;DHT22;52812;48.960;9.108;2022-12-18T14:27:52;-2.10;99.90
3086;DHT22;52812;48.960;9.108;2022-12-18T14:30:32;-2.10;99.90
3086;DHT22;52812;48.960;9.108;2022-12-18T14:33:09;-2.20;99.90
3086;DHT22;52812;48.960;9.108;2022-12-18T14:35:41;-2.20;99.90
3086;DHT22;52812;48.960;9.108;2022-12-18T14:41:14;-2.30;99.90
3086;DHT22;52812;48.960;9.108;2022-12-18T14:43:42;-2.30;99.90
3086;DHT22;52812;48.960;9.108;2022-12-18T14:48:52;-2.40;99.90
3086;DHT22;52812;48.960;9.108;2022-12-18T14:51:26;-2.50;99.90
3086;DHT22;52812;48.960;9.108;2022-12-18T14:56:27;-2.60;99.90
3086;DHT22;52812;48.960;9.108;2022-12-18T15:01:23;-2.60;99.90
3086;DHT22;52812;48.960;9.108;2022-12-18T15:03:52;-2.60;99.90
3086;DHT22;52812;48.960;9.108;2022-12-18T15:08:53;-2.70;99.90
3086;DHT22;52812;48.960;9.108;2022-12-18T15:13:59;-2.70;99.90
3086;DHT22;52812;48.960;9.108;2022-12-18T15:16:29;-2.70;99.90
3086;DHT22;52812;48.960;9.108;2022-12-18T15:18:54;-2.70;99.90
3086;DHT22;52812;48.960;9.108;2022-12-18T15:21:21;-2.70;99.90
3086;DHT22;52812;48.960;9.108;2022-12-18T15:23:50;-2.80;99.90
3086;DHT22;52812;48.960;9.108;2022-12-18T15:26:19;-2.80;99.90
3086;DHT22;52812;48.960;9.108;2022-12-18T15:28:50;-2.80;99.90
3086;DHT22;52812;48.960;9.108;2022-12-18T15:34:19;-2.90;99.90
3086;DHT22;52812;48.960;9.108;2022-12-18T15:36:53;-3.00;99.90
3086;DHT22;52812;48.960;9.108;2022-12-18T15:39:18;-3.00;99.90
3086;DHT22;52812;48.960;9.108;2022-12-18T15:41:44;-3.00;99.90
3086;DHT22;52812;48.960;9.108;2022-12-18T15:44:30;-3.00;99.90
3086;DHT22;52812;48.960;9.108;2022-12-18T15:46:56;-3.00;99.90
3086;DHT22;52812;48.960;9.108;2022-12-18T15:49:22;-3.10;99.90
3086;DHT22;52812;48.960;9.108;2022-12-18T15:51:58;-3.10;99.90
3086;DHT22;52812;48.960;9.108;2022-12-18T15:54:25;-3.20;99.90
3086;DHT22;52812;48.960;9.108;2022-12-18T15:57:10;-3.20;99.90
3086;DHT22;52812;48.960;9.108;2022-12-18T15:59:53;-3.20;99.90
3086;DHT22;52812;48.960;9.108;2022-12-18T16:02:20;-3.20;99.90
3086;DHT22;52812;48.960;9.108;2022-12-18T16:04:48;-3.20;99.90
3086;DHT22;52812;48.960;9.108;2022-12-18T16:07:14;-3.30;99.90
3086;DHT22;52812;48.960;9.108;2022-12-18T16:09:40;-3.30;99.90
3086;DHT22;52812;48.960;9.108;2022-12-18T16:12:14;-3.30;99.90
3086;DHT22;52812;48.960;9.108;2022-12-18T16:14:40;-3.40;99.90
3086;DHT22;52812;48.960;9.108;2022-12-18T16:17:10;-3.40;99.90
3086;DHT22;52812;48.960;9.108;2022-12-18T16:19:37;-3.40;99.90
3086;DHT22;52812;48.960;9.108;2022-12-18T16:22:02;-3.40;99.90
3086;DHT22;52812;48.960;9.108;2022-12-18T16:24:31;-3.40;99.90
3086;DHT22;52812;48.960;9.108;2022-12-18T16:26:59;-3.40;99.90
3086;DHT22;52812;48.960;9.108;2022-12-18T16:29:26;-3.40;99.90
3086;DHT22;52812;48.960;9.108;2022-12-18T16:32:00;-3.40;99.90
3086;DHT22;52812;48.960;9.108;2022-12-18T16:34:27;-3.40;99.90
3086;DHT22;52812;48.960;9.108;2022-12-18T16:37:04;-3.40;99.90
3086;DHT22;52812;48.960;9.108;2022-12-18T16:39:30;-3.30;99.90
3086;DHT22;52812;48.960;9.108;2022-12-18T16:41:57;-3.40;99.90
3086;DHT22;52812;48.960;9.108;2022-12-18T16:44:23;-3.40;99.90
3086;DHT22;52812;48.960;9.108;2022-12-18T16:46:48;-3.40;99.90
3086;DHT22;52812;48.960;9.108;2022-12-18T16:49:16;-3.40;99.90
3086;DHT22;52812;48.960;9.108;2022-12-18T16:51:42;-3.40;99.90
3086;DHT22;52812;48.960;9.108;2022-12-18T16:54:08;-3.40;99.90
3086;DHT22;52812;48.960;9.108;2022-12-18T16:56:34;-3.40;99.90
3086;DHT22;52812;48.960;9.108;2022-12-18T16:59:01;-3.40;99.90
3086;DHT22;52812;48.960;9.108;2022-12-18T17:01:28;-3.40;99.90
3086;DHT22;52812;48.960;9.108;2022-12-18T17:03:56;-3.40;99.90
3086;DHT22;52812;48.960;9.108;2022-12-18T17:06:24;-3.40;99.90
3086;DHT22;52812;48.960;9.108;2022-12-18T17:09:00;-3.40;99.90
3086;DHT22;52812;48.960;9.108;2022-12-18T17:11:28;-3.40;99.90
3086;DHT22;52812;48.960;9.108;2022-12-18T17:13:54;-3.30;99.90
3086;DHT22;52812;48.960;9.108;2022-12-18T17:16:21;-3.30;99.90
3086;DHT22;52812;48.960;9.108;2022-12-18T17:18:46;-3.30;99.90
3086;DHT22;52812;48.960;9.108;2022-12-18T17:21:12;-3.30;99.90
3086;DHT22;52812;48.960;9.108;2022-12-18T17:23:40;-3.40;99.90
3086;DHT22;52812;48.960;9.108;2022-12-18T17:26:06;-3.40;99.90
3086;DHT22;52812;48.960;9.108;2022-12-18T17:28:35;-3.40;99.90
3086;DHT22;52812;48.960;9.108;2022-12-18T17:31:00;-3.30;99.90
3086;DHT22;52812;48.960;9.108;2022-12-18T17:33:26;-3.40;99.90
3086;DHT22;52812;48.960;9.108;2022-12-18T17:35:52;-3.40;99.90
3086;DHT22;52812;48.960;9.108;2022-12-18T17:38:18;-3.40;99.90
3086;DHT22;52812;48.960;9.108;2022-12-18T17:40:54;-3.40;99.90
3086;DHT22;52812;48.960;9.108;2022-12-18T17:43:32;-3.40;99.90
3086;DHT22;52812;48.960;9.108;2022-12-18T17:46:33;-3.30;99.90
3086;DHT22;52812;48.960;9.108;2022-12-18T17:49:16;-3.30;99.90
3086;DHT22;52812;48.960;9.108;2022-12-18T17:51:41;-3.40;99.90
3086;DHT22;52812;48.960;9.108;2022-12-18T17:54:08;-3.40;99.90
3086;DHT22;52812;48.960;9.108;2022-12-18T17:56:46;-3.30;99.90
3086;DHT22;52812;48.960;9.108;2022-12-18T17:59:13;-3.30;99.90
3086;DHT22;52812;48.960;9.108;2022-12-18T18:01:39;-3.30;99.90
3086;DHT22;52812;48.960;9.108;2022-12-18T18:04:04;-3.40;99.90
3086;DHT22;52812;48.960;9.108;2022-12-18T18:06:31;-3.40;99.90
3086;DHT22;52812;48.960;9.108;2022-12-18T18:08:57;-3.40;99.90
3086;DHT22;52812;48.960;9.108;2022-12-18T18:11:23;-3.30;99.90
3086;DHT22;52812;48.960;9.108;2022-12-18T18:14:18;-3.30;99.90